Time;durP1;ratioP1;P1;durP2;ratioP2;P2;SDS_P1;SDS_P2;PMS_P1;PMS_P2;Temp;Humidity;BMP_temperature;BMP_pressure;BME280_temperature;BME280_humidity;BME280_pressure;Samples;Min_cycle;Max_cycle;Signal;HPM_P1;HPM_P2
2023/01/20 12:31:23;;;;;;;;;;;;;;;;;;5111708;23;19922;-84
2023/01/20 12:33:50;;;;;;;;;;;;;;;;;;4957342;28;19918;-84
2023/01/20 12:36:22;;;;;;;;;;;;;;;;;;4974829;28;19917;-84
2023/01/20 12:39:08;;;;;;;;;;;;;;;;;;4974828;28;19957;-83
2023/01/20 12:41:51;;;;;;;;;;;;;;;;;;4974824;28;20284;-84
2023/01/20 12:44:26;;;;;;;;;;;;;;;;;;4957218;28;19914;-84
2023/01/20 12:46:58;;;;;;;;;;;;;;;;;;4957287;28;19918;-84
2023/01/20 16:53:10;;;;;;;;;;;;;;;;;;4961119;28;19962;-88
2023/01/20 16:55:36;;;;;;;;;;;;;;;;;;4948818;28;20021;-87
2023/01/20 16:58:01;;;;;;;;;;;;;;;;;;4965351;28;19977;-86
2023/01/20 17:00:27;;;;;;;;;;;;;;;;;;4979829;28;19914;-87
2023/01/20 17:02:52;;;;;;;;;;;;;;;;;;4988256;28;19914;-88
2023/01/20 17:05:21;;;;;;;;;;;;;;;;;;4977215;28;20412;-87
2023/01/20 17:07:50;;;;;;;;;;;;;;;;;;4960265;28;19921;-86
2023/01/20 17:10:16;;;;;;;;;;;;;;;;;;4960101;28;19914;-86
2023/01/20 17:12:43;;;;;;;;;;;;;;;;;;4941408;29;19910;-86
2023/01/20 17:15:08;;;;;;;;;;;;;;;;;;4941204;29;19915;-86
2023/01/20 17:17:37;;;;;;;;;;;;;;;;;;4941243;29;19911;-85
2023/01/20 17:20:03;;;;;;;;;;;;;;;;;;4958395;29;19918;-83
2023/01/20 17:22:28;;;;;;;;;;;;;;;;;;4941267;29;19915;-86
2023/01/20 17:24:54;;;;;;;;;;;;;;;;;;4958393;29;19933;-85
2023/01/20 17:27:19;;;;;;;;;;;;;;;;;;4941056;29;19921;-86
2023/01/20 17:29:44;;;;;;;;;;;;;;;;;;4979527;28;19909;-86
2023/01/20 17:32:10;;;;;;;;;;;;;;;;;;4997097;28;20264;-86
2023/01/20 17:34:35;;;;;;;;;;;;;;;;;;4979391;28;19918;-86
2023/01/20 17:37:00;;;;;;;;;;;;;;;;;;4979428;28;19913;-86
2023/01/20 17:39:26;;;;;;;;;;;;;;;;;;4996736;28;19936;-86
2023/01/20 17:41:51;;;;;;;;;;;;;;;;;;4979316;28;19913;-86
2023/01/20 17:44:16;;;;;;;;;;;;;;;;;;4997080;28;20009;-86
2023/01/20 17:46:41;;;;;;;;;;;;;;;;;;4996872;28;19922;-85
2023/01/20 17:49:07;;;;;;;;;;;;;;;;;;4979200;28;19918;-86
2023/01/20 17:51:33;;;;;;;;;;;;;;;;;;4996853;28;20395;-84
2023/01/20 17:53:58;;;;;;;;;;;;;;;;;;4977352;28;19929;-85
2023/01/20 17:56:24;;;;;;;;;;;;;;;;;;4952568;28;19918;-86
2023/01/20 17:58:49;;;;;;;;;;;;;;;;;;4961952;28;19914;-86
2023/01/20 18:01:19;;;;;;;;;;;;;;;;;;4957674;28;20384;-87
2023/01/20 18:03:46;;;;;;;;;;;;;;;;;;4976861;28;19914;-87
2023/01/20 18:06:12;;;;;;;;;;;;;;;;;;4977013;28;19921;-87
2023/01/20 18:08:37;;;;;;;;;;;;;;;;;;4976707;28;19920;-86
2023/01/20 18:11:08;;;;;;;;;;;;;;;;;;4976388;28;20016;-86
2023/01/20 18:13:34;;;;;;;;;;;;;;;;;;4959295;28;19914;-87
2023/01/20 18:16:03;;;;;;;;;;;;;;;;;;4976502;28;19921;-88
2023/01/20 18:18:29;;;;;;;;;;;;;;;;;;4959376;28;19925;-87
2023/01/20 18:20:54;;;;;;;;;;;;;;;;;;4976639;28;19914;-87
2023/01/20 18:23:19;;;;;;;;;;;;;;;;;;4959325;28;19937;-87
2023/01/20 18:25:45;;;;;;;;;;;;;;;;;;4959495;28;20280;-87
2023/01/20 18:28:11;;;;;;;;;;;;;;;;;;4976828;28;19953;-87
2023/01/20 18:30:36;;;;;;;;;;;;;;;;;;4959260;28;19910;-86
2023/01/20 18:33:02;;;;;;;;;;;;;;;;;;4976770;28;20344;-89
2023/01/20 18:35:28;;;;;;;;;;;;;;;;;;4976832;28;20262;-85
2023/01/20 18:37:53;;;;;;;;;;;;;;;;;;4976397;28;19965;-85
2023/01/20 18:40:19;;;;;;;;;;;;;;;;;;4958895;28;19918;-86
2023/01/20 18:42:44;;;;;;;;;;;;;;;;;;4958063;28;19918;-88
2023/01/20 18:45:09;;;;;;;;;;;;;;;;;;4965402;28;20375;-86
2023/01/20 18:47:35;;;;;;;;;;;;;;;;;;4972657;28;19914;-85
2023/01/20 18:50:00;;;;;;;;;;;;;;;;;;4957701;28;20283;-86
2023/01/20 18:52:25;;;;;;;;;;;;;;;;;;4957475;28;19918;-84
2023/01/20 18:54:50;;;;;;;;;;;;;;;;;;4958063;28;19987;-85
2023/01/20 18:57:16;;;;;;;;;;;;;;;;;;4975231;28;19914;-88
2023/01/20 18:59:41;;;;;;;;;;;;;;;;;;4958017;28;19921;-87
2023/01/20 19:02:07;;;;;;;;;;;;;;;;;;4970221;28;19918;-81
2023/01/20 19:04:34;;;;;;;;;;;;;;;;;;4943919;29;20321;-88
2023/01/20 19:06:59;;;;;;;;;;;;;;;;;;4937708;29;20293;-88
2023/01/20 19:09:25;;;;;;;;;;;;;;;;;;4938609;29;19919;-91
2023/01/20 19:11:50;;;;;;;;;;;;;;;;;;4955858;29;20380;-85
2023/01/20 19:14:15;;;;;;;;;;;;;;;;;;4938676;29;19919;-84
2023/01/20 19:16:43;;;;;;;;;;;;;;;;;;4938335;29;19921;-85
2023/01/20 19:19:09;;;;;;;;;;;;;;;;;;4955649;29;20409;-84
2023/01/20 19:21:35;;;;;;;;;;;;;;;;;;4938363;29;20017;-84
2023/01/20 19:24:07;;;;;;;;;;;;;;;;;;4955661;29;20377;-83
2023/01/20 19:26:34;;;;;;;;;;;;;;;;;;4938390;29;20073;-84
2023/01/20 19:29:04;;;;;;;;;;;;;;;;;;4938222;29;20262;-84
2023/01/20 19:31:31;;;;;;;;;;;;;;;;;;4955658;29;20353;-87
2023/01/20 19:33:56;;;;;;;;;;;;;;;;;;4955543;29;19960;-85
2023/01/20 19:36:22;;;;;;;;;;;;;;;;;;4938539;29;20017;-85
2023/01/20 19:38:48;;;;;;;;;;;;;;;;;;4938130;29;19918;-87
2023/01/20 19:41:14;;;;;;;;;;;;;;;;;;4938111;29;20070;-88
2023/01/20 19:43:40;;;;;;;;;;;;;;;;;;4938243;29;19925;-87
2023/01/20 19:46:08;;;;;;;;;;;;;;;;;;4955262;29;19910;-87
2023/01/20 19:48:34;;;;;;;;;;;;;;;;;;4938041;29;19919;-87
2023/01/20 19:51:04;;;;;;;;;;;;;;;;;;4938039;29;19918;-87
2023/01/20 19:53:29;;;;;;;;;;;;;;;;;;4898820;29;1184410;-89
2023/01/20 19:56:00;;;;;;;;;;;;;;;;;;4938761;29;19918;-86
2023/01/20 19:58:26;;;;;;;;;;;;;;;;;;4938562;29;19965;-88
2023/01/20 20:00:51;;;;;;;;;;;;;;;;;;4938644;29;19914;-88
2023/01/20 20:03:16;;;;;;;;;;;;;;;;;;4938862;29;20000;-87
2023/01/20 20:05:42;;;;;;;;;;;;;;;;;;4940650;29;20009;-86
2023/01/20 20:08:08;;;;;;;;;;;;;;;;;;4942743;29;20365;-88
2023/01/20 20:10:39;;;;;;;;;;;;;;;;;;4959787;29;19918;-86
2023/01/20 20:13:04;;;;;;;;;;;;;;;;;;4942779;29;19938;-86
2023/01/20 20:15:29;;;;;;;;;;;;;;;;;;4959949;29;20354;-84
2023/01/20 20:17:55;;;;;;;;;;;;;;;;;;4942914;29;19921;-83
2023/01/20 20:20:20;;;;;;;;;;;;;;;;;;4959607;29;19918;-84
2023/01/20 20:22:45;;;;;;;;;;;;;;;;;;4942349;29;19938;-89
2023/01/20 20:25:11;;;;;;;;;;;;;;;;;;4942320;29;20320;-86
2023/01/20 20:27:36;;;;;;;;;;;;;;;;;;4942414;29;19918;-86
2023/01/20 20:30:05;;;;;;;;;;;;;;;;;;4959508;29;20002;-87
2023/01/20 20:32:30;;;;;;;;;;;;;;;;;;4942245;29;20369;-86
2023/01/20 20:34:57;;;;;;;;;;;;;;;;;;4942523;29;19942;-87
2023/01/20 20:37:22;;;;;;;;;;;;;;;;;;4941723;29;19962;-87
2023/01/20 20:39:48;;;;;;;;;;;;;;;;;;4959369;29;19915;-86
2023/01/20 20:42:13;;;;;;;;;;;;;;;;;;4942428;29;20272;-86
2023/01/20 20:44:39;;;;;;;;;;;;;;;;;;4942010;29;19914;-86
2023/01/20 20:47:05;;;;;;;;;;;;;;;;;;4942012;29;19914;-87
2023/01/20 20:49:30;;;;;;;;;;;;;;;;;;4959337;29;20452;-87
2023/01/20 20:51:56;;;;;;;;;;;;;;;;;;4959022;29;20013;-86
2023/01/20 20:54:21;;;;;;;;;;;;;;;;;;4959065;29;19918;-86
2023/01/20 20:56:47;;;;;;;;;;;;;;;;;;4958913;29;19914;-86
2023/01/20 20:59:12;;;;;;;;;;;;;;;;;;4959183;29;19914;-86
2023/01/20 21:01:38;;;;;;;;;;;;;;;;;;4958933;29;19957;-85
2023/01/20 21:04:03;;;;;;;;;;;;;;;;;;4958832;29;20245;-86
2023/01/20 21:06:29;;;;;;;;;;;;;;;;;;4959634;28;19914;-85
2023/01/20 21:08:54;;;;;;;;;;;;;;;;;;4997394;28;20292;-85
2023/01/20 21:11:20;;;;;;;;;;;;;;;;;;4997471;28;19914;-89
2023/01/20 21:13:47;;;;;;;;;;;;;;;;;;4989075;28;20384;-84
2023/01/20 21:16:14;;;;;;;;;;;;;;;;;;4960098;28;19914;-86
2023/01/20 21:18:40;;;;;;;;;;;;;;;;;;4960558;28;19921;-85
2023/01/20 21:21:06;;;;;;;;;;;;;;;;;;4960463;28;19914;-85
2023/01/20 21:23:32;;;;;;;;;;;;;;;;;;4996106;28;19913;-85
2023/01/20 21:26:01;;;;;;;;;;;;;;;;;;4997225;28;19929;-85
2023/01/20 21:28:27;;;;;;;;;;;;;;;;;;4979652;28;19918;-84
2023/01/20 21:30:52;;;;;;;;;;;;;;;;;;4979541;28;19920;-88
2023/01/20 21:33:18;;;;;;;;;;;;;;;;;;4997380;28;19920;-84
2023/01/20 21:35:43;;;;;;;;;;;;;;;;;;4997426;28;19913;-88
2023/01/20 21:38:09;;;;;;;;;;;;;;;;;;4997013;28;19924;-87
2023/01/20 21:40:34;;;;;;;;;;;;;;;;;;4978787;28;19914;-86
2023/01/20 21:45:54;;;;;;;;;;;;;;;;;;4937792;28;19921;-84
2023/01/20 21:53:49;;;;;;;;;;;;;;;;;;4977509;28;19941;-85
2023/01/20 21:56:15;;;;;;;;;;;;;;;;;;4977363;28;20013;-86
2023/01/20 21:58:40;;;;;;;;;;;;;;;;;;4976928;28;20001;-87
2023/01/20 22:01:05;;;;;;;;;;;;;;;;;;4977404;28;20254;-86
2023/01/20 22:03:31;;;;;;;;;;;;;;;;;;4975252;28;19914;-88
2023/01/20 22:05:56;;;;;;;;;;;;;;;;;;4957782;29;19921;-86
2023/01/20 22:08:21;;;;;;;;;;;;;;;;;;4957452;29;19915;-87
2023/01/20 22:10:53;;;;;;;;;;;;;;;;;;4957726;29;20365;-88
2023/01/20 22:13:19;;;;;;;;;;;;;;;;;;4957715;29;19968;-87
2023/01/20 22:15:44;;;;;;;;;;;;;;;;;;4957568;29;20365;-88
2023/01/20 22:18:09;;;;;;;;;;;;;;;;;;4939964;29;19914;-86
2023/01/20 22:20:35;;;;;;;;;;;;;;;;;;4940123;29;19921;-86
2023/01/20 22:23:01;;;;;;;;;;;;;;;;;;4957351;29;19926;-86
2023/01/20 22:25:27;;;;;;;;;;;;;;;;;;4957492;29;19942;-87
2023/01/20 22:27:52;;;;;;;;;;;;;;;;;;4939138;28;19954;-87
2023/01/20 22:30:18;;;;;;;;;;;;;;;;;;4957507;29;19914;-86
2023/01/20 22:32:43;;;;;;;;;;;;;;;;;;4940170;29;19914;-87
2023/01/20 22:35:08;;;;;;;;;;;;;;;;;;4939499;29;20380;-86
2023/01/20 22:37:34;;;;;;;;;;;;;;;;;;4939782;29;19979;-86
2023/01/20 22:40:00;;;;;;;;;;;;;;;;;;4939874;29;20001;-86
2023/01/20 22:42:26;;;;;;;;;;;;;;;;;;4940060;29;19914;-86
2023/01/20 22:44:51;;;;;;;;;;;;;;;;;;4956932;29;19961;-86
2023/01/20 22:47:16;;;;;;;;;;;;;;;;;;4956846;29;19914;-86
2023/01/20 22:49:42;;;;;;;;;;;;;;;;;;4957086;29;20079;-86
2023/01/20 22:52:07;;;;;;;;;;;;;;;;;;4956312;28;19977;-86
2023/01/20 22:54:32;;;;;;;;;;;;;;;;;;4956935;29;20377;-86
2023/01/20 22:56:58;;;;;;;;;;;;;;;;;;4939502;29;19914;-85
2023/01/20 22:59:23;;;;;;;;;;;;;;;;;;4939317;29;20357;-86
2023/01/20 23:01:48;;;;;;;;;;;;;;;;;;4956410;29;19925;-86
2023/01/20 23:04:14;;;;;;;;;;;;;;;;;;4956666;29;19922;-86
2023/01/20 23:06:39;;;;;;;;;;;;;;;;;;4939368;29;19919;-85
2023/01/20 23:09:06;;;;;;;;;;;;;;;;;;4956787;29;20329;-85
2023/01/20 23:11:32;;;;;;;;;;;;;;;;;;4956661;29;20012;-86
2023/01/20 23:13:59;;;;;;;;;;;;;;;;;;4939322;29;19961;-86
2023/01/20 23:16:25;;;;;;;;;;;;;;;;;;4939235;29;19914;-87
2023/01/20 23:18:51;;;;;;;;;;;;;;;;;;4939113;29;19921;-86
2023/01/20 23:21:16;;;;;;;;;;;;;;;;;;4956336;29;20259;-86
